Sumaya — 6YSM4 — position and weather

sailwx.info

Track history (hours):
 
Tides and Currents Weather Stations Pressure Air Temp Water Temp Dewpoint Dewpoint Depression Visibility Wind Speed Wind Dir Waves Ship Positions

Sumaya

Last reported at 2018-Jul-21 12:51 UTC. Time now 2018-Aug-19 23:11 UTC.
Position N 40°36' E 014°31'.
Warning: this ship's position is 29 days out of date.

Length 33 m.

Type: Pleasure craft. MMSI: 339444000.

Date/timePositionNaut miles runAvg speedWind from/ knotsBaromVisibWave heightAir tempDewpointWater temp
2018-Jul-21 12:51N 40°36' E 014°31'1 0.4
2018-Jul-21 08:58N 40°37' E 014°30'4 0.1
2018-Jul-19 16:50N 40°36' E 014°34'3 9.3
2018-Jul-19 16:30N 40°37' E 014°30'1 0.8
2018-Jul-19 15:46N 40°37' E 014°30'0 0.1
2018-Jul-19 15:19N 40°37' E 014°30'0 0.0
2018-Jul-18 12:54N 40°37' E 014°30'0 0.8
2018-Jul-18 12:25N 40°37' E 014°29'3 8.2
2018-Jul-18 12:00N 40°36' E 014°25'6 9.9
2018-Jul-18 11:21N 40°34' E 014°17'2 2.1
2018-Jul-18 10:30N 40°33' E 014°15'0 0.0
2018-Jul-18 10:00N 40°33' E 014°15'0 0.0
2018-Jul-18 09:30N 40°33' E 014°15'0 0.0
2018-Jul-18 09:00N 40°33' E 014°15'0 0.0
2018-Jul-18 08:21N 40°33' E 014°15'0 0.0
2018-Jul-18 07:54N 40°33' E 014°15'0 0.0
2018-Jul-18 07:30N 40°33' E 014°15'0 0.0
2018-Jul-18 06:57N 40°33' E 014°15'0 0.0
2018-Jul-18 06:27N 40°33' E 014°15'0 0.0
2018-Jul-18 06:00N 40°33' E 014°15'0 0.0
2018-Jul-18 05:27N 40°33' E 014°15'0 0.0
2018-Jul-18 05:00N 40°33' E 014°15'0 0.0
2018-Jul-18 04:30N 40°33' E 014°15'0 0.0
2018-Jul-18 04:00N 40°33' E 014°15'0 0.0
2018-Jul-18 03:27N 40°33' E 014°15'0 0.0
2018-Jul-18 03:00N 40°33' E 014°15'0 0.0
2018-Jul-18 02:28N 40°33' E 014°15'0 0.0
2018-Jul-18 01:58N 40°33' E 014°15'0 0.0
2018-Jul-18 01:28N 40°33' E 014°15'0 0.0
2018-Jul-18 00:58N 40°33' E 014°15'0 0.0
2018-Jul-18 00:28N 40°33' E 014°15'0 0.0
2018-Jul-17 23:58N 40°33' E 014°15'0 0.0
2018-Jul-17 23:28N 40°33' E 014°15'0 0.0
2018-Jul-17 22:55N 40°33' E 014°15'0 0.0
2018-Jul-17 22:22N 40°33' E 014°15'0 0.0
2018-Jul-17 21:58N 40°33' E 014°15'0 0.0
2018-Jul-17 15:13N 40°33' E 014°15'0 0.0
2018-Jul-17 14:55N 40°33' E 014°15'0 0.0
2018-Jul-17 14:28N 40°33' E 014°15'0 0.0
2018-Jul-17 13:55N 40°33' E 014°15'0 0.0
2018-Jul-17 13:28N 40°33' E 014°15'0 0.0
2018-Jul-17 12:55N 40°33' E 014°15'0 0.0
2018-Jul-17 12:28N 40°33' E 014°15'0 0.0
2018-Jul-17 11:55N 40°33' E 014°15'0 0.0
2018-Jul-17 11:28N 40°33' E 014°15'0 0.0
2018-Jul-17 10:55N 40°33' E 014°15'0 0.0
2018-Jul-17 10:25N 40°33' E 014°15'0 0.0
2018-Jul-17 09:58N 40°33' E 014°15'0 0.0
2018-Jul-17 09:22N 40°33' E 014°15'0 0.0
2018-Jul-17 08:58N 40°33' E 014°15'0 0.0
2018-Jul-17 08:28N 40°33' E 014°15'0 0.0
2018-Jul-17 07:55N 40°33' E 014°15'0 0.0
2018-Jul-17 07:22N 40°33' E 014°15'0 0.0
2018-Jul-17 06:58N 40°33' E 014°15'0 0.0
2018-Jul-17 06:25N 40°33' E 014°15'0 0.0
2018-Jul-17 05:58N 40°33' E 014°15'0 0.0
2018-Jul-17 05:28N 40°33' E 014°15'0 0.0
2018-Jul-17 04:52N 40°33' E 014°15'0 0.0
2018-Jul-17 04:28N 40°33' E 014°15'0 0.0
2018-Jul-17 03:58N 40°33' E 014°15'0 0.0
2018-Jul-17 03:28N 40°33' E 014°15'0 0.0
2018-Jul-17 02:58N 40°33' E 014°15'0 0.0
2018-Jul-17 02:22N 40°33' E 014°15'0 0.0
2018-Jul-17 01:55N 40°33' E 014°15'0 0.0
2018-Jul-17 01:28N 40°33' E 014°15'0 0.0
2018-Jul-17 00:58N 40°33' E 014°15'0 0.0
2018-Jul-17 00:28N 40°33' E 014°15'0 0.0
2018-Jul-16 23:28N 40°33' E 014°15'0 0.0
2018-Jul-16 22:58N 40°33' E 014°15'0 0.0
2018-Jul-16 22:28N 40°33' E 014°15'0 0.0
2018-Jul-16 21:58N 40°33' E 014°15'0 0.0
2018-Jul-16 21:25N 40°33' E 014°15'0 0.0
2018-Jul-16 20:58N 40°33' E 014°15'0 0.0
2018-Jul-16 20:25N 40°33' E 014°15'0 0.0
2018-Jul-16 19:49N 40°33' E 014°15'0 0.0
2018-Jul-16 19:28N 40°33' E 014°15'0 0.0
2018-Jul-16 18:58N 40°33' E 014°15'0 0.0
2018-Jul-16 18:28N 40°33' E 014°15'0 0.0
2018-Jul-16 17:43N 40°33' E 014°15'0 0.0
2018-Jul-16 17:28N 40°33' E 014°15'0 0.0
2018-Jul-16 16:55N 40°33' E 014°15'0 0.0
2018-Jul-16 16:13N 40°33' E 014°15'0 0.0
2018-Jul-16 15:58N 40°33' E 014°15'0 0.0
2018-Jul-16 15:28N 40°33' E 014°15'0 0.0
2018-Jul-16 14:49N 40°33' E 014°15'0 0.0
2018-Jul-16 14:28N 40°33' E 014°15'0 0.0
2018-Jul-16 13:58N 40°33' E 014°15'0 0.0
2018-Jul-16 13:16N 40°33' E 014°15'0 0.0
2018-Jul-16 12:55N 40°33' E 014°15'0 0.0
2018-Jul-16 12:25N 40°33' E 014°15'0 0.0
2018-Jul-16 11:58N 40°33' E 014°15'0 0.0
2018-Jul-16 11:28N 40°33' E 014°15'1 1.0
2018-Jul-16 10:52N 40°34' E 014°14'2 0.8
2018-Jul-16 08:38N 40°33' E 014°16'110.0
2018-Jul-16 08:30N 40°34' E 014°17'5 9.3
2018-Jul-16 08:01N 40°38' E 014°20'3 5.5
2018-Jul-16 07:28N 40°38' E 014°24'0 0.0
2018-Jul-16 06:58N 40°38' E 014°24'0 0.0
2018-Jul-16 06:22N 40°38' E 014°24'0 0.0
2018-Jul-16 05:58N 40°38' E 014°24'0 0.0
2018-Jul-16 05:28N 40°38' E 014°24'0 0.0
2018-Jul-16 04:58N 40°38' E 014°24'0 0.0
2018-Jul-16 04:28N 40°38' E 014°24'0 0.0
2018-Jul-16 03:58N 40°38' E 014°24'0 0.0
2018-Jul-16 03:28N 40°38' E 014°24'0 0.0
2018-Jul-16 02:58N 40°38' E 014°24'0 0.0
2018-Jul-16 02:25N 40°38' E 014°24'0 0.0
2018-Jul-16 01:58N 40°38' E 014°24'0 0.0
2018-Jul-16 01:28N 40°38' E 014°24'0 0.0
2018-Jul-16 00:58N 40°38' E 014°24'0 0.0
2018-Jul-16 00:28N 40°38' E 014°24'0 0.0
2018-Jul-15 23:58N 40°38' E 014°24'0 0.0
2018-Jul-15 23:28N 40°38' E 014°24'0 0.0
2018-Jul-15 22:58N 40°38' E 014°24'0 0.0
2018-Jul-15 22:28N 40°38' E 014°24'0 0.0
2018-Jul-15 21:58N 40°38' E 014°24'0 0.0
2018-Jul-15 21:28N 40°38' E 014°24'0 0.0
2018-Jul-15 20:58N 40°38' E 014°24'0 0.0
2018-Jul-15 20:28N 40°38' E 014°24'0 0.0
2018-Jul-15 19:58N 40°38' E 014°24'0 0.0
2018-Jul-15 19:28N 40°38' E 014°24'0 0.0
2018-Jul-15 18:58N 40°38' E 014°24'0 0.0
2018-Jul-15 18:25N 40°38' E 014°24'0 0.0
2018-Jul-15 17:58N 40°38' E 014°24'0 0.0
2018-Jul-15 17:28N 40°38' E 014°24'0 0.0
2018-Jul-15 16:58N 40°38' E 014°24'0 0.0
2018-Jul-15 16:28N 40°38' E 014°24'0 0.0
2018-Jul-15 15:58N 40°38' E 014°24'1 1.8
2018-Jul-15 15:26N 40°39' E 014°24'2 0.9
2018-Jul-15 12:59N 40°41' E 014°26'3 5.5
2018-Jul-15 12:28N 40°38' E 014°24'0 0.0
2018-Jul-15 11:58N 40°38' E 014°24'0 0.0
2018-Jul-15 11:28N 40°38' E 014°24'0 0.0
2018-Jul-15 10:58N 40°38' E 014°24'0 0.0
2018-Jul-15 10:28N 40°38' E 014°24'0 0.0
2018-Jul-15 09:58N 40°38' E 014°24'0 0.0
2018-Jul-15 09:28N 40°38' E 014°24'0 0.0
2018-Jul-15 08:55N 40°38' E 014°24'0 0.0
2018-Jul-15 08:25N 40°38' E 014°24'0 0.0
2018-Jul-15 07:55N 40°38' E 014°24'0 0.0
2018-Jul-15 07:28N 40°38' E 014°24'0 0.0
2018-Jul-15 06:58N 40°38' E 014°24'0 0.0
2018-Jul-15 06:28N 40°38' E 014°24'0 0.0
2018-Jul-15 05:58N 40°38' E 014°24'0 0.0
2018-Jul-15 05:28N 40°38' E 014°24'0 0.0
2018-Jul-15 04:58N 40°38' E 014°24'0 0.0
2018-Jul-15 04:28N 40°38' E 014°24'0 0.0
2018-Jul-15 03:55N 40°38' E 014°24'0 0.0
2018-Jul-15 03:25N 40°38' E 014°24'0 0.0
2018-Jul-15 02:58N 40°38' E 014°24'0 0.0
2018-Jul-15 02:28N 40°38' E 014°24'0 0.0
2018-Jul-15 01:58N 40°38' E 014°24'0 0.0
2018-Jul-15 01:28N 40°38' E 014°24'0 0.0
2018-Jul-15 00:58N 40°38' E 014°24'0 0.0
2018-Jul-15 00:28N 40°38' E 014°24'0 0.0
2018-Jul-14 23:58N 40°38' E 014°24'0 0.0
2018-Jul-14 23:28N 40°38' E 014°24'0 0.0
2018-Jul-14 22:58N 40°38' E 014°24'0 0.0
2018-Jul-14 22:28N 40°38' E 014°24'0 0.0
2018-Jul-14 21:58N 40°38' E 014°24'0 0.0
2018-Jul-14 21:28N 40°38' E 014°24'0 0.0
2018-Jul-14 20:58N 40°38' E 014°24'0 0.0
2018-Jul-14 20:28N 40°38' E 014°24'0 0.0
2018-Jul-14 19:58N 40°38' E 014°24'0 0.0
2018-Jul-14 19:28N 40°38' E 014°24'0 0.0
2018-Jul-14 18:58N 40°38' E 014°24'0 0.0
2018-Jul-14 18:28N 40°38' E 014°24'0 0.0
2018-Jul-14 17:58N 40°38' E 014°24'0 0.0
2018-Jul-14 17:28N 40°38' E 014°24'0 0.0
2018-Jul-14 16:58N 40°38' E 014°24'0 0.0
2018-Jul-14 16:28N 40°38' E 014°24'0 0.0
2018-Jul-14 15:58N 40°38' E 014°24'1 1.1
2018-Jul-14 15:28N 40°38' E 014°23'0 0.1
2018-Jul-14 14:58N 40°38' E 014°23'0 0.0
2018-Jul-14 14:28N 40°38' E 014°23'0 0.0
2018-Jul-14 13:30N 40°38' E 014°23'4 7.3
2018-Jul-14 13:00N 40°39' E 014°19'5 9.8
2018-Jul-14 12:30N 40°40' E 014°12'510.3
2018-Jul-14 12:00N 40°42' E 014°06'5 7.4
2018-Jul-14 11:21N 40°44' E 014°00'3 8.2
2018-Jul-14 11:00N 40°45' E 013°57'0 0.0
2018-Jul-13 20:23N 40°45' E 013°57'0 0.0
2018-Jul-13 17:30N 40°45' E 013°56'4 0.6
2018-Jul-13 10:44N 40°46' E 014°02'0 0.0
2018-Jul-13 10:23N 40°46' E 014°02'0 0.0
2018-Jul-13 09:53N 40°46' E 014°02'0 0.0
2018-Jul-13 09:29N 40°46' E 014°02'0 0.0
2018-Jul-13 08:53N 40°46' E 014°02'0 0.0
2018-Jul-13 08:29N 40°46' E 014°02'0 0.0
2018-Jul-13 07:59N 40°46' E 014°02'0 0.0
2018-Jul-13 07:29N 40°46' E 014°02'0 0.0
2018-Jul-13 06:59N 40°46' E 014°02'0 0.0
2018-Jul-13 05:59N 40°46' E 014°02'0 0.0
2018-Jul-13 05:14N 40°46' E 014°02'0 0.0
2018-Jul-13 04:59N 40°46' E 014°02'0 0.0
2018-Jul-13 04:29N 40°46' E 014°02'0 0.0
2018-Jul-13 03:56N 40°46' E 014°02'0 0.0
2018-Jul-13 03:23N 40°46' E 014°02'0 0.0
2018-Jul-13 02:50N 40°46' E 014°02'0 0.0
2018-Jul-13 02:20N 40°46' E 014°02'0 0.0
2018-Jul-13 01:59N 40°46' E 014°02'0 0.0
2018-Jul-13 01:29N 40°46' E 014°02'0 0.0
2018-Jul-13 00:50N 40°46' E 014°02'0 0.0
2018-Jul-13 00:26N 40°46' E 014°02'0 0.0
2018-Jul-12 23:56N 40°46' E 014°02'0 0.0
2018-Jul-12 23:11N 40°46' E 014°02'0 0.0
2018-Jul-12 22:59N 40°46' E 014°02'0 0.0
2018-Jul-12 22:23N 40°46' E 014°02'0 0.0
2018-Jul-12 21:47N 40°46' E 014°02'0 0.0
2018-Jul-12 21:21N 40°46' E 014°02'0 0.0
2018-Jul-12 20:55N 40°46' E 014°02'0 0.0
2018-Jul-12 20:13N 40°46' E 014°02'0 0.0
2018-Jul-12 19:55N 40°46' E 014°02'0 0.0
2018-Jul-12 19:28N 40°46' E 014°02'0 0.0
2018-Jul-12 18:01N 40°46' E 014°02'0 0.0
2018-Jul-12 17:34N 40°46' E 014°02'0 0.0
2018-Jul-12 17:19N 40°46' E 014°02'0 0.0
2018-Jul-12 16:58N 40°46' E 014°02'0 0.0
2018-Jul-12 16:13N 40°46' E 014°02'0 0.0
2018-Jul-12 15:43N 40°46' E 014°02'0 0.0
2018-Jul-12 15:28N 40°46' E 014°02'0 0.0
2018-Jul-12 14:25N 40°46' E 014°02'0 0.0
2018-Jul-12 13:52N 40°46' E 014°02'0 0.0
2018-Jul-12 13:07N 40°46' E 014°02'0 0.0
2018-Jul-12 12:58N 40°46' E 014°02'0 0.0
2018-Jul-12 12:28N 40°46' E 014°02'1 1.5
2018-Jul-12 12:00N 40°45' E 014°02'1 0.3
2018-Jul-12 10:14N 40°45' E 014°02'2 6.5
2018-Jul-12 10:00N 40°45' E 014°04'510.3
2018-Jul-12 09:30N 40°46' E 014°10'4 8.3
2018-Jul-12 09:00N 40°50' E 014°13'0 0.1
2018-Jul-12 08:28N 40°50' E 014°13'0 0.0
2018-Jul-12 07:55N 40°50' E 014°13'0 0.0
2018-Jul-12 07:28N 40°50' E 014°13'0 0.0
2018-Jul-12 06:58N 40°50' E 014°13'0 0.0
2018-Jul-12 06:28N 40°50' E 014°13'0 0.0
2018-Jul-12 05:58N 40°50' E 014°13'0 0.0
2018-Jul-12 05:28N 40°50' E 014°13'0 0.0
2018-Jul-12 05:01N 40°50' E 014°13'0 0.0
2018-Jul-12 04:28N 40°50' E 014°13'0 0.0
2018-Jul-12 03:55N 40°50' E 014°13'0 0.0
2018-Jul-12 03:31N 40°50' E 014°13'0 0.0
2018-Jul-12 02:55N 40°50' E 014°13'0 0.0
2018-Jul-12 02:28N 40°50' E 014°13'0 0.0
2018-Jul-12 02:01N 40°50' E 014°13'0 0.0
2018-Jul-12 01:31N 40°50' E 014°13'0 0.0
2018-Jul-12 00:58N 40°50' E 014°13'0 0.0
2018-Jul-12 00:31N 40°50' E 014°13'0 0.0
2018-Jul-12 00:01N 40°50' E 014°13'0 0.0
2018-Jul-11 23:28N 40°50' E 014°13'0 0.0
2018-Jul-11 22:58N 40°50' E 014°13'0 0.0
2018-Jul-11 22:31N 40°50' E 014°13'  
Track history (hours):
 
Tides and Currents Weather Stations Pressure Air Temp Water Temp Dewpoint Dewpoint Depression Visibility Wind Speed Wind Dir Waves Ship Positions

Sumaya

Last reported at 2018-Jul-21 12:51 UTC. Time now 2018-Aug-19 23:11 UTC.
Position N 40°36' E 014°31'.
Warning: this ship's position is 29 days out of date.

Length 33 m.

Type: Pleasure craft. MMSI: 339444000.

Date/timePositionNaut miles runAvg speedWind from/ knotsBaromVisibWave heightAir tempDewpointWater temp
2018-Jul-21 12:51N 40°36' E 014°31'1 0.4
2018-Jul-21 08:58N 40°37' E 014°30'4 0.1
2018-Jul-19 16:50N 40°36' E 014°34'3 9.3
2018-Jul-19 16:30N 40°37' E 014°30'1 0.8
2018-Jul-19 15:46N 40°37' E 014°30'0 0.1
2018-Jul-19 15:19N 40°37' E 014°30'0 0.0
2018-Jul-18 12:54N 40°37' E 014°30'0 0.8
2018-Jul-18 12:25N 40°37' E 014°29'3 8.2
2018-Jul-18 12:00N 40°36' E 014°25'6 9.9
2018-Jul-18 11:21N 40°34' E 014°17'2 2.1
2018-Jul-18 10:30N 40°33' E 014°15'0 0.0
2018-Jul-18 10:00N 40°33' E 014°15'0 0.0
2018-Jul-18 09:30N 40°33' E 014°15'0 0.0
2018-Jul-18 09:00N 40°33' E 014°15'0 0.0
2018-Jul-18 08:21N 40°33' E 014°15'0 0.0
2018-Jul-18 07:54N 40°33' E 014°15'0 0.0
2018-Jul-18 07:30N 40°33' E 014°15'0 0.0
2018-Jul-18 06:57N 40°33' E 014°15'0 0.0
2018-Jul-18 06:27N 40°33' E 014°15'0 0.0
2018-Jul-18 06:00N 40°33' E 014°15'0 0.0
2018-Jul-18 05:27N 40°33' E 014°15'0 0.0
2018-Jul-18 05:00N 40°33' E 014°15'0 0.0
2018-Jul-18 04:30N 40°33' E 014°15'0 0.0
2018-Jul-18 04:00N 40°33' E 014°15'0 0.0
2018-Jul-18 03:27N 40°33' E 014°15'0 0.0
2018-Jul-18 03:00N 40°33' E 014°15'0 0.0
2018-Jul-18 02:28N 40°33' E 014°15'0 0.0
2018-Jul-18 01:58N 40°33' E 014°15'0 0.0
2018-Jul-18 01:28N 40°33' E 014°15'0 0.0
2018-Jul-18 00:58N 40°33' E 014°15'0 0.0
2018-Jul-18 00:28N 40°33' E 014°15'0 0.0
2018-Jul-17 23:58N 40°33' E 014°15'0 0.0
2018-Jul-17 23:28N 40°33' E 014°15'0 0.0
2018-Jul-17 22:55N 40°33' E 014°15'0 0.0
2018-Jul-17 22:22N 40°33' E 014°15'0 0.0
2018-Jul-17 21:58N 40°33' E 014°15'0 0.0
2018-Jul-17 15:13N 40°33' E 014°15'0 0.0
2018-Jul-17 14:55N 40°33' E 014°15'0 0.0
2018-Jul-17 14:28N 40°33' E 014°15'0 0.0
2018-Jul-17 13:55N 40°33' E 014°15'0 0.0
2018-Jul-17 13:28N 40°33' E 014°15'0 0.0
2018-Jul-17 12:55N 40°33' E 014°15'0 0.0
2018-Jul-17 12:28N 40°33' E 014°15'0 0.0
2018-Jul-17 11:55N 40°33' E 014°15'0 0.0
2018-Jul-17 11:28N 40°33' E 014°15'0 0.0
2018-Jul-17 10:55N 40°33' E 014°15'0 0.0
2018-Jul-17 10:25N 40°33' E 014°15'0 0.0
2018-Jul-17 09:58N 40°33' E 014°15'0 0.0
2018-Jul-17 09:22N 40°33' E 014°15'0 0.0
2018-Jul-17 08:58N 40°33' E 014°15'0 0.0
2018-Jul-17 08:28N 40°33' E 014°15'0 0.0
2018-Jul-17 07:55N 40°33' E 014°15'0 0.0
2018-Jul-17 07:22N 40°33' E 014°15'0 0.0
2018-Jul-17 06:58N 40°33' E 014°15'0 0.0
2018-Jul-17 06:25N 40°33' E 014°15'0 0.0
2018-Jul-17 05:58N 40°33' E 014°15'0 0.0
2018-Jul-17 05:28N 40°33' E 014°15'0 0.0
2018-Jul-17 04:52N 40°33' E 014°15'0 0.0
2018-Jul-17 04:28N 40°33' E 014°15'0 0.0
2018-Jul-17 03:58N 40°33' E 014°15'0 0.0
2018-Jul-17 03:28N 40°33' E 014°15'0 0.0
2018-Jul-17 02:58N 40°33' E 014°15'0 0.0
2018-Jul-17 02:22N 40°33' E 014°15'0 0.0
2018-Jul-17 01:55N 40°33' E 014°15'0 0.0
2018-Jul-17 01:28N 40°33' E 014°15'0 0.0
2018-Jul-17 00:58N 40°33' E 014°15'0 0.0
2018-Jul-17 00:28N 40°33' E 014°15'0 0.0
2018-Jul-16 23:28N 40°33' E 014°15'0 0.0
2018-Jul-16 22:58N 40°33' E 014°15'0 0.0
2018-Jul-16 22:28N 40°33' E 014°15'0 0.0
2018-Jul-16 21:58N 40°33' E 014°15'0 0.0
2018-Jul-16 21:25N 40°33' E 014°15'0 0.0
2018-Jul-16 20:58N 40°33' E 014°15'0 0.0
2018-Jul-16 20:25N 40°33' E 014°15'0 0.0
2018-Jul-16 19:49N 40°33' E 014°15'0 0.0
2018-Jul-16 19:28N 40°33' E 014°15'0 0.0
2018-Jul-16 18:58N 40°33' E 014°15'0 0.0
2018-Jul-16 18:28N 40°33' E 014°15'0 0.0
2018-Jul-16 17:43N 40°33' E 014°15'0 0.0
2018-Jul-16 17:28N 40°33' E 014°15'0 0.0
2018-Jul-16 16:55N 40°33' E 014°15'0 0.0
2018-Jul-16 16:13N 40°33' E 014°15'0 0.0
2018-Jul-16 15:58N 40°33' E 014°15'0 0.0
2018-Jul-16 15:28N 40°33' E 014°15'0 0.0
2018-Jul-16 14:49N 40°33' E 014°15'0 0.0
2018-Jul-16 14:28N 40°33' E 014°15'0 0.0
2018-Jul-16 13:58N 40°33' E 014°15'0 0.0
2018-Jul-16 13:16N 40°33' E 014°15'0 0.0
2018-Jul-16 12:55N 40°33' E 014°15'0 0.0
2018-Jul-16 12:25N 40°33' E 014°15'0 0.0
2018-Jul-16 11:58N 40°33' E 014°15'0 0.0
2018-Jul-16 11:28N 40°33' E 014°15'1 1.0
2018-Jul-16 10:52N 40°34' E 014°14'2 0.8
2018-Jul-16 08:38N 40°33' E 014°16'110.0
2018-Jul-16 08:30N 40°34' E 014°17'5 9.3
2018-Jul-16 08:01N 40°38' E 014°20'3 5.5
2018-Jul-16 07:28N 40°38' E 014°24'0 0.0
2018-Jul-16 06:58N 40°38' E 014°24'0 0.0
2018-Jul-16 06:22N 40°38' E 014°24'0 0.0
2018-Jul-16 05:58N 40°38' E 014°24'0 0.0
2018-Jul-16 05:28N 40°38' E 014°24'0 0.0
2018-Jul-16 04:58N 40°38' E 014°24'0 0.0
2018-Jul-16 04:28N 40°38' E 014°24'0 0.0
2018-Jul-16 03:58N 40°38' E 014°24'0 0.0
2018-Jul-16 03:28N 40°38' E 014°24'0 0.0
2018-Jul-16 02:58N 40°38' E 014°24'0 0.0
2018-Jul-16 02:25N 40°38' E 014°24'0 0.0
2018-Jul-16 01:58N 40°38' E 014°24'0 0.0
2018-Jul-16 01:28N 40°38' E 014°24'0 0.0
2018-Jul-16 00:58N 40°38' E 014°24'0 0.0
2018-Jul-16 00:28N 40°38' E 014°24'0 0.0
2018-Jul-15 23:58N 40°38' E 014°24'0 0.0
2018-Jul-15 23:28N 40°38' E 014°24'0 0.0
2018-Jul-15 22:58N 40°38' E 014°24'0 0.0
2018-Jul-15 22:28N 40°38' E 014°24'0 0.0
2018-Jul-15 21:58N 40°38' E 014°24'0 0.0
2018-Jul-15 21:28N 40°38' E 014°24'0 0.0
2018-Jul-15 20:58N 40°38' E 014°24'0 0.0
2018-Jul-15 20:28N 40°38' E 014°24'0 0.0
2018-Jul-15 19:58N 40°38' E 014°24'0 0.0
2018-Jul-15 19:28N 40°38' E 014°24'0 0.0
2018-Jul-15 18:58N 40°38' E 014°24'0 0.0
2018-Jul-15 18:25N 40°38' E 014°24'0 0.0
2018-Jul-15 17:58N 40°38' E 014°24'0 0.0
2018-Jul-15 17:28N 40°38' E 014°24'0 0.0
2018-Jul-15 16:58N 40°38' E 014°24'0 0.0
2018-Jul-15 16:28N 40°38' E 014°24'0 0.0
2018-Jul-15 15:58N 40°38' E 014°24'1 1.8
2018-Jul-15 15:26N 40°39' E 014°24'2 0.9
2018-Jul-15 12:59N 40°41' E 014°26'3 5.5
2018-Jul-15 12:28N 40°38' E 014°24'0 0.0
2018-Jul-15 11:58N 40°38' E 014°24'0 0.0
2018-Jul-15 11:28N 40°38' E 014°24'0 0.0
2018-Jul-15 10:58N 40°38' E 014°24'0 0.0
2018-Jul-15 10:28N 40°38' E 014°24'0 0.0
2018-Jul-15 09:58N 40°38' E 014°24'0 0.0
2018-Jul-15 09:28N 40°38' E 014°24'0 0.0
2018-Jul-15 08:55N 40°38' E 014°24'0 0.0
2018-Jul-15 08:25N 40°38' E 014°24'0 0.0
2018-Jul-15 07:55N 40°38' E 014°24'0 0.0
2018-Jul-15 07:28N 40°38' E 014°24'0 0.0
2018-Jul-15 06:58N 40°38' E 014°24'0 0.0
2018-Jul-15 06:28N 40°38' E 014°24'0 0.0
2018-Jul-15 05:58N 40°38' E 014°24'0 0.0
2018-Jul-15 05:28N 40°38' E 014°24'0 0.0
2018-Jul-15 04:58N 40°38' E 014°24'0 0.0
2018-Jul-15 04:28N 40°38' E 014°24'0 0.0
2018-Jul-15 03:55N 40°38' E 014°24'0 0.0
2018-Jul-15 03:25N 40°38' E 014°24'0 0.0
2018-Jul-15 02:58N 40°38' E 014°24'0 0.0
2018-Jul-15 02:28N 40°38' E 014°24'0 0.0
2018-Jul-15 01:58N 40°38' E 014°24'0 0.0
2018-Jul-15 01:28N 40°38' E 014°24'0 0.0
2018-Jul-15 00:58N 40°38' E 014°24'0 0.0
2018-Jul-15 00:28N 40°38' E 014°24'0 0.0
2018-Jul-14 23:58N 40°38' E 014°24'0 0.0
2018-Jul-14 23:28N 40°38' E 014°24'0 0.0
2018-Jul-14 22:58N 40°38' E 014°24'0 0.0
2018-Jul-14 22:28N 40°38' E 014°24'0 0.0
2018-Jul-14 21:58N 40°38' E 014°24'0 0.0
2018-Jul-14 21:28N 40°38' E 014°24'0 0.0
2018-Jul-14 20:58N 40°38' E 014°24'0 0.0
2018-Jul-14 20:28N 40°38' E 014°24'0 0.0
2018-Jul-14 19:58N 40°38' E 014°24'0 0.0
2018-Jul-14 19:28N 40°38' E 014°24'0 0.0
2018-Jul-14 18:58N 40°38' E 014°24'0 0.0
2018-Jul-14 18:28N 40°38' E 014°24'0 0.0
2018-Jul-14 17:58N 40°38' E 014°24'0 0.0
2018-Jul-14 17:28N 40°38' E 014°24'0 0.0
2018-Jul-14 16:58N 40°38' E 014°24'0 0.0
2018-Jul-14 16:28N 40°38' E 014°24'0 0.0
2018-Jul-14 15:58N 40°38' E 014°24'1 1.1
2018-Jul-14 15:28N 40°38' E 014°23'0 0.1
2018-Jul-14 14:58N 40°38' E 014°23'0 0.0
2018-Jul-14 14:28N 40°38' E 014°23'0 0.0
2018-Jul-14 13:30N 40°38' E 014°23'4 7.3
2018-Jul-14 13:00N 40°39' E 014°19'5 9.8
2018-Jul-14 12:30N 40°40' E 014°12'510.3
2018-Jul-14 12:00N 40°42' E 014°06'5 7.4
2018-Jul-14 11:21N 40°44' E 014°00'3 8.2
2018-Jul-14 11:00N 40°45' E 013°57'0 0.0
2018-Jul-13 20:23N 40°45' E 013°57'0 0.0
2018-Jul-13 17:30N 40°45' E 013°56'4 0.6
2018-Jul-13 10:44N 40°46' E 014°02'0 0.0
2018-Jul-13 10:23N 40°46' E 014°02'0 0.0
2018-Jul-13 09:53N 40°46' E 014°02'0 0.0
2018-Jul-13 09:29N 40°46' E 014°02'0 0.0
2018-Jul-13 08:53N 40°46' E 014°02'0 0.0
2018-Jul-13 08:29N 40°46' E 014°02'0 0.0
2018-Jul-13 07:59N 40°46' E 014°02'0 0.0
2018-Jul-13 07:29N 40°46' E 014°02'0 0.0
2018-Jul-13 06:59N 40°46' E 014°02'0 0.0
2018-Jul-13 05:59N 40°46' E 014°02'0 0.0
2018-Jul-13 05:14N 40°46' E 014°02'0 0.0
2018-Jul-13 04:59N 40°46' E 014°02'0 0.0
2018-Jul-13 04:29N 40°46' E 014°02'0 0.0
2018-Jul-13 03:56N 40°46' E 014°02'0 0.0
2018-Jul-13 03:23N 40°46' E 014°02'0 0.0
2018-Jul-13 02:50N 40°46' E 014°02'0 0.0
2018-Jul-13 02:20N 40°46' E 014°02'0 0.0
2018-Jul-13 01:59N 40°46' E 014°02'0 0.0
2018-Jul-13 01:29N 40°46' E 014°02'0 0.0
2018-Jul-13 00:50N 40°46' E 014°02'0 0.0
2018-Jul-13 00:26N 40°46' E 014°02'0 0.0
2018-Jul-12 23:56N 40°46' E 014°02'0 0.0
2018-Jul-12 23:11N 40°46' E 014°02'0 0.0
2018-Jul-12 22:59N 40°46' E 014°02'0 0.0
2018-Jul-12 22:23N 40°46' E 014°02'0 0.0
2018-Jul-12 21:47N 40°46' E 014°02'0 0.0
2018-Jul-12 21:21N 40°46' E 014°02'0 0.0
2018-Jul-12 20:55N 40°46' E 014°02'0 0.0
2018-Jul-12 20:13N 40°46' E 014°02'0 0.0
2018-Jul-12 19:55N 40°46' E 014°02'0 0.0
2018-Jul-12 19:28N 40°46' E 014°02'0 0.0
2018-Jul-12 18:01N 40°46' E 014°02'0 0.0
2018-Jul-12 17:34N 40°46' E 014°02'0 0.0
2018-Jul-12 17:19N 40°46' E 014°02'0 0.0
2018-Jul-12 16:58N 40°46' E 014°02'0 0.0
2018-Jul-12 16:13N 40°46' E 014°02'0 0.0
2018-Jul-12 15:43N 40°46' E 014°02'0 0.0
2018-Jul-12 15:28N 40°46' E 014°02'0 0.0
2018-Jul-12 14:25N 40°46' E 014°02'0 0.0
2018-Jul-12 13:52N 40°46' E 014°02'0 0.0
2018-Jul-12 13:07N 40°46' E 014°02'0 0.0
2018-Jul-12 12:58N 40°46' E 014°02'0 0.0
2018-Jul-12 12:28N 40°46' E 014°02'1 1.5
2018-Jul-12 12:00N 40°45' E 014°02'1 0.3
2018-Jul-12 10:14N 40°45' E 014°02'2 6.5
2018-Jul-12 10:00N 40°45' E 014°04'510.3
2018-Jul-12 09:30N 40°46' E 014°10'4 8.3
2018-Jul-12 09:00N 40°50' E 014°13'0 0.1
2018-Jul-12 08:28N 40°50' E 014°13'0 0.0
2018-Jul-12 07:55N 40°50' E 014°13'0 0.0
2018-Jul-12 07:28N 40°50' E 014°13'0 0.0
2018-Jul-12 06:58N 40°50' E 014°13'0 0.0
2018-Jul-12 06:28N 40°50' E 014°13'0 0.0
2018-Jul-12 05:58N 40°50' E 014°13'0 0.0
2018-Jul-12 05:28N 40°50' E 014°13'0 0.0
2018-Jul-12 05:01N 40°50' E 014°13'0 0.0
2018-Jul-12 04:28N 40°50' E 014°13'0 0.0
2018-Jul-12 03:55N 40°50' E 014°13'0 0.0
2018-Jul-12 03:31N 40°50' E 014°13'0 0.0
2018-Jul-12 02:55N 40°50' E 014°13'0 0.0
2018-Jul-12 02:28N 40°50' E 014°13'0 0.0
2018-Jul-12 02:01N 40°50' E 014°13'0 0.0
2018-Jul-12 01:31N 40°50' E 014°13'0 0.0
2018-Jul-12 00:58N 40°50' E 014°13'0 0.0
2018-Jul-12 00:31N 40°50' E 014°13'0 0.0
2018-Jul-12 00:01N 40°50' E 014°13'0 0.0
2018-Jul-11 23:28N 40°50' E 014°13'0 0.0
2018-Jul-11 22:58N 40°50' E 014°13'0 0.0
2018-Jul-11 22:31N 40°50' E 014°13'  

Dump ship's entire track history